sensor_id;sensor_type;location;lat;lon;timestamp;pressure;altitude;pressure_sealevel;temperature;humidity
42519;BME280;28147;47.520;18.920;2022-10-31T00:00:57;99080.53;;;17.68;65.63
42519;BME280;28147;47.520;18.920;2022-10-31T00:03:23;99084.97;;;17.90;65.29
42519;BME280;28147;47.520;18.920;2022-10-31T00:05:49;99087.03;;;17.72;65.53
42519;BME280;28147;47.520;18.920;2022-10-31T00:08:16;99081.47;;;17.32;66.68
42519;BME280;28147;47.520;18.920;2022-10-31T00:10:43;99081.00;;;17.50;65.86
42519;BME280;28147;47.520;18.920;2022-10-31T00:13:10;99074.22;;;17.37;66.49
42519;BME280;28147;47.520;18.920;2022-10-31T00:15:36;99080.66;;;17.89;65.13
42519;BME280;28147;47.520;18.920;2022-10-31T00:18:03;99082.66;;;17.61;65.91
42519;BME280;28147;47.520;18.920;2022-10-31T00:20:29;99078.13;;;17.19;67.67
42519;BME280;28147;47.520;18.920;2022-10-31T00:22:59;99073.53;;;17.10;67.26
42519;BME280;28147;47.520;18.920;2022-10-31T00:25:26;99075.50;;;16.87;68.38
42519;BME280;28147;47.520;18.920;2022-10-31T00:27:52;99070.25;;;17.08;67.93
42519;BME280;28147;47.520;18.920;2022-10-31T00:30:17;99064.88;;;17.08;67.67
42519;BME280;28147;47.520;18.920;2022-10-31T00:32:42;99069.06;;;17.31;67.44
42519;BME280;28147;47.520;18.920;2022-10-31T00:35:08;99070.44;;;17.38;67.02
42519;BME280;28147;47.520;18.920;2022-10-31T00:37:33;99065.69;;;17.56;66.80
42519;BME280;28147;47.520;18.920;2022-10-31T00:39:59;99067.50;;;17.40;66.72
42519;BME280;28147;47.520;18.920;2022-10-31T00:42:24;99056.69;;;17.30;67.27
42519;BME280;28147;47.520;18.920;2022-10-31T00:44:49;99059.78;;;17.59;65.93
42519;BME280;28147;47.520;18.920;2022-10-31T00:47:15;99058.97;;;17.58;66.38
42519;BME280;28147;47.520;18.920;2022-10-31T00:49:40;99058.84;;;17.27;66.79
42519;BME280;28147;47.520;18.920;2022-10-31T00:52:06;99048.44;;;17.46;66.62
42519;BME280;28147;47.520;18.920;2022-10-31T00:54:31;99060.88;;;17.63;65.78
42519;BME280;28147;47.520;18.920;2022-10-31T00:56:57;99053.78;;;17.41;66.40
42519;BME280;28147;47.520;18.920;2022-10-31T00:59:22;99056.66;;;17.24;67.35
42519;BME280;28147;47.520;18.920;2022-10-31T01:01:48;99058.41;;;17.51;66.53
42519;BME280;28147;47.520;18.920;2022-10-31T01:04:13;99063.00;;;17.61;65.50
42519;BME280;28147;47.520;18.920;2022-10-31T01:06:39;99059.28;;;17.14;66.83
42519;BME280;28147;47.520;18.920;2022-10-31T01:09:04;99059.88;;;16.52;69.00
42519;BME280;28147;47.520;18.920;2022-10-31T01:11:30;99055.38;;;16.90;68.75
42519;BME280;28147;47.520;18.920;2022-10-31T01:13:55;99057.09;;;17.06;67.94
42519;BME280;28147;47.520;18.920;2022-10-31T01:16:23;99054.06;;;17.40;66.38
42519;BME280;28147;47.520;18.920;2022-10-31T01:18:49;99052.03;;;17.15;66.74
42519;BME280;28147;47.520;18.920;2022-10-31T01:21:21;99047.91;;;16.70;68.71
42519;BME280;28147;47.520;18.920;2022-10-31T01:23:47;99046.53;;;16.99;67.47
42519;BME280;28147;47.520;18.920;2022-10-31T01:26:18;99045.44;;;16.95;67.29
42519;BME280;28147;47.520;18.920;2022-10-31T01:29:05;99051.28;;;17.24;66.31
42519;BME280;28147;47.520;18.920;2022-10-31T01:31:36;99054.22;;;16.48;68.86
42519;BME280;28147;47.520;18.920;2022-10-31T01:34:03;99042.44;;;16.87;67.81
42519;BME280;28147;47.520;18.920;2022-10-31T01:36:32;99044.75;;;16.41;68.63
42519;BME280;28147;47.520;18.920;2022-10-31T01:39:05;99037.03;;;16.54;67.67
42519;BME280;28147;47.520;18.920;2022-10-31T01:41:33;99035.22;;;16.60;68.20
42519;BME280;28147;47.520;18.920;2022-10-31T01:44:02;99047.31;;;16.90;67.39
42519;BME280;28147;47.520;18.920;2022-10-31T01:46:37;99040.22;;;16.19;69.52
42519;BME280;28147;47.520;18.920;2022-10-31T01:49:09;99036.91;;;16.39;69.31
42519;BME280;28147;47.520;18.920;2022-10-31T01:51:39;99045.06;;;16.82;67.91
42519;BME280;28147;47.520;18.920;2022-10-31T01:54:09;99046.75;;;16.93;68.05
42519;BME280;28147;47.520;18.920;2022-10-31T01:56:39;99044.38;;;17.39;66.11
42519;BME280;28147;47.520;18.920;2022-10-31T01:59:08;99045.41;;;17.38;65.96
42519;BME280;28147;47.520;18.920;2022-10-31T02:01:36;99032.75;;;17.38;66.27
42519;BME280;28147;47.520;18.920;2022-10-31T02:04:02;99035.50;;;16.96;67.48
42519;BME280;28147;47.520;18.920;2022-10-31T02:06:44;99034.88;;;17.26;66.52
42519;BME280;28147;47.520;18.920;2022-10-31T02:09:12;99029.31;;;17.43;65.55
42519;BME280;28147;47.520;18.920;2022-10-31T02:11:40;99038.13;;;17.33;65.64
42519;BME280;28147;47.520;18.920;2022-10-31T02:14:06;99039.75;;;16.87;65.70
42519;BME280;28147;47.520;18.920;2022-10-31T02:16:31;99035.75;;;16.62;67.56
42519;BME280;28147;47.520;18.920;2022-10-31T02:18:57;99026.53;;;16.48;67.71
42519;BME280;28147;47.520;18.920;2022-10-31T02:21:32;99031.13;;;16.52;68.22
42519;BME280;28147;47.520;18.920;2022-10-31T02:30:10;99029.41;;;16.73;66.46
42519;BME280;28147;47.520;18.920;2022-10-31T02:33:00;99035.41;;;16.86;66.18
42519;BME280;28147;47.520;18.920;2022-10-31T02:38:13;99033.22;;;17.20;65.40
42519;BME280;28147;47.520;18.920;2022-10-31T02:40:53;99036.59;;;17.58;64.00
42519;BME280;28147;47.520;18.920;2022-10-31T02:43:49;99040.56;;;16.87;65.27
42519;BME280;28147;47.520;18.920;2022-10-31T02:46:32;99034.41;;;16.97;65.39
42519;BME280;28147;47.520;18.920;2022-10-31T02:49:07;99034.81;;;16.73;66.08
42519;BME280;28147;47.520;18.920;2022-10-31T02:51:35;99045.75;;;16.99;65.30
42519;BME280;28147;47.520;18.920;2022-10-31T02:54:01;99045.97;;;17.40;64.55
42519;BME280;28147;47.520;18.920;2022-10-31T02:56:26;99041.31;;;17.83;63.09
42519;BME280;28147;47.520;18.920;2022-10-31T02:58:58;99046.19;;;17.33;63.76
42519;BME280;28147;47.520;18.920;2022-10-31T03:07:30;99041.16;;;16.99;66.02
42519;BME280;28147;47.520;18.920;2022-10-31T03:10:10;99043.81;;;17.37;64.29
42519;BME280;28147;47.520;18.920;2022-10-31T03:12:55;99045.63;;;17.26;64.87
42519;BME280;28147;47.520;18.920;2022-10-31T03:18:24;99046.22;;;17.38;63.72
42519;BME280;28147;47.520;18.920;2022-10-31T03:21:05;99053.31;;;16.38;67.31
42519;BME280;28147;47.520;18.920;2022-10-31T03:23:35;99048.91;;;16.91;65.76
42519;BME280;28147;47.520;18.920;2022-10-31T03:26:05;99057.06;;;16.69;65.23
42519;BME280;28147;47.520;18.920;2022-10-31T03:28:45;99056.00;;;17.07;64.68
42519;BME280;28147;47.520;18.920;2022-10-31T03:31:13;99058.78;;;17.75;62.99
42519;BME280;28147;47.520;18.920;2022-10-31T03:33:42;99059.16;;;18.04;60.79
42519;BME280;28147;47.520;18.920;2022-10-31T03:36:11;99062.19;;;18.38;60.03
42519;BME280;28147;47.520;18.920;2022-10-31T03:38:40;99059.50;;;18.59;58.74
42519;BME280;28147;47.520;18.920;2022-10-31T03:41:11;99054.81;;;17.93;61.46
42519;BME280;28147;47.520;18.920;2022-10-31T03:43:42;99057.38;;;17.62;62.44
42519;BME280;28147;47.520;18.920;2022-10-31T03:46:09;99054.78;;;17.30;63.74
42519;BME280;28147;47.520;18.920;2022-10-31T03:48:35;99056.06;;;17.12;64.35
42519;BME280;28147;47.520;18.920;2022-10-31T03:51:22;99064.28;;;16.95;65.87
42519;BME280;28147;47.520;18.920;2022-10-31T03:59:45;99056.44;;;17.36;63.82
42519;BME280;28147;47.520;18.920;2022-10-31T04:02:17;99059.28;;;17.62;62.93
42519;BME280;28147;47.520;18.920;2022-10-31T04:04:45;99050.63;;;17.55;63.20
42519;BME280;28147;47.520;18.920;2022-10-31T04:07:12;99065.56;;;17.78;62.38
42519;BME280;28147;47.520;18.920;2022-10-31T04:09:41;99069.69;;;17.48;62.64
42519;BME280;28147;47.520;18.920;2022-10-31T04:12:09;99062.03;;;17.24;64.24
42519;BME280;28147;47.520;18.920;2022-10-31T04:14:38;99067.69;;;17.75;62.82
42519;BME280;28147;47.520;18.920;2022-10-31T04:17:08;99066.56;;;17.71;62.09
42519;BME280;28147;47.520;18.920;2022-10-31T04:19:35;99059.00;;;17.63;62.19
42519;BME280;28147;47.520;18.920;2022-10-31T04:22:01;99063.84;;;17.14;63.91
42519;BME280;28147;47.520;18.920;2022-10-31T04:24:26;99066.22;;;17.05;64.07
42519;BME280;28147;47.520;18.920;2022-10-31T04:26:52;99068.84;;;17.37;63.35
42519;BME280;28147;47.520;18.920;2022-10-31T04:29:17;99079.72;;;17.63;62.46
42519;BME280;28147;47.520;18.920;2022-10-31T04:31:42;99078.66;;;17.64;61.88
42519;BME280;28147;47.520;18.920;2022-10-31T04:34:08;99084.88;;;17.17;63.37
42519;BME280;28147;47.520;18.920;2022-10-31T04:36:33;99078.91;;;17.10;63.55
42519;BME280;28147;47.520;18.920;2022-10-31T04:38:59;99081.09;;;17.13;63.75
42519;BME280;28147;47.520;18.920;2022-10-31T04:41:24;99093.13;;;17.05;64.02
42519;BME280;28147;47.520;18.920;2022-10-31T04:43:49;99090.75;;;17.14;63.53
42519;BME280;28147;47.520;18.920;2022-10-31T04:46:15;99084.06;;;16.79;64.68
42519;BME280;28147;47.520;18.920;2022-10-31T04:48:40;99098.13;;;17.29;63.76
42519;BME280;28147;47.520;18.920;2022-10-31T04:51:06;99084.75;;;17.39;62.82
42519;BME280;28147;47.520;18.920;2022-10-31T04:53:31;99097.97;;;17.08;63.82
42519;BME280;28147;47.520;18.920;2022-10-31T04:56:00;99090.97;;;17.07;64.22
42519;BME280;28147;47.520;18.920;2022-10-31T04:58:26;99100.25;;;17.26;63.62
42519;BME280;28147;47.520;18.920;2022-10-31T05:00:52;99088.19;;;17.34;62.95
42519;BME280;28147;47.520;18.920;2022-10-31T05:03:18;99091.84;;;17.13;63.87
42519;BME280;28147;47.520;18.920;2022-10-31T05:05:44;99089.13;;;17.55;62.77
42519;BME280;28147;47.520;18.920;2022-10-31T05:08:09;99083.81;;;17.70;62.09
42519;BME280;28147;47.520;18.920;2022-10-31T05:10:34;99081.97;;;16.86;64.60
42519;BME280;28147;47.520;18.920;2022-10-31T05:13:01;99084.25;;;17.57;62.96
42519;BME280;28147;47.520;18.920;2022-10-31T05:15:27;99095.53;;;17.49;62.78
42519;BME280;28147;47.520;18.920;2022-10-31T05:17:53;99095.75;;;16.95;64.77
42519;BME280;28147;47.520;18.920;2022-10-31T05:20:21;99083.88;;;15.82;68.06
42519;BME280;28147;47.520;18.920;2022-10-31T05:22:49;99079.59;;;16.09;67.69
42519;BME280;28147;47.520;18.920;2022-10-31T05:25:15;99084.13;;;16.03;68.22
42519;BME280;28147;47.520;18.920;2022-10-31T05:27:42;99089.66;;;16.45;66.71
42519;BME280;28147;47.520;18.920;2022-10-31T05:30:10;99094.94;;;16.94;65.24
42519;BME280;28147;47.520;18.920;2022-10-31T05:32:43;99109.28;;;17.05;64.33
42519;BME280;28147;47.520;18.920;2022-10-31T05:35:13;99093.47;;;17.66;62.93
42519;BME280;28147;47.520;18.920;2022-10-31T05:37:38;99095.16;;;17.30;62.70
42519;BME280;28147;47.520;18.920;2022-10-31T05:40:06;99110.66;;;17.55;62.95
42519;BME280;28147;47.520;18.920;2022-10-31T05:42:31;99112.19;;;17.41;62.96
42519;BME280;28147;47.520;18.920;2022-10-31T05:44:57;99112.91;;;17.31;63.52
42519;BME280;28147;47.520;18.920;2022-10-31T05:47:23;99110.72;;;17.70;62.35
42519;BME280;28147;47.520;18.920;2022-10-31T05:49:48;99087.84;;;16.83;64.31
42519;BME280;28147;47.520;18.920;2022-10-31T05:52:14;99090.38;;;16.95;64.52
42519;BME280;28147;47.520;18.920;2022-10-31T05:54:40;99099.53;;;16.99;64.36
42519;BME280;28147;47.520;18.920;2022-10-31T05:57:05;99095.19;;;16.66;65.63
42519;BME280;28147;47.520;18.920;2022-10-31T05:59:31;99101.44;;;17.46;63.34
42519;BME280;28147;47.520;18.920;2022-10-31T06:01:56;99097.13;;;17.02;63.53
42519;BME280;28147;47.520;18.920;2022-10-31T06:04:21;99106.81;;;17.46;62.70
42519;BME280;28147;47.520;18.920;2022-10-31T06:06:47;99113.63;;;17.59;62.73
42519;BME280;28147;47.520;18.920;2022-10-31T06:09:12;99109.22;;;17.85;61.49
42519;BME280;28147;47.520;18.920;2022-10-31T06:11:38;99098.88;;;17.66;61.57
42519;BME280;28147;47.520;18.920;2022-10-31T06:14:04;99111.47;;;17.13;63.37
42519;BME280;28147;47.520;18.920;2022-10-31T06:16:31;99097.31;;;16.32;66.74
42519;BME280;28147;47.520;18.920;2022-10-31T06:18:56;99099.63;;;17.09;64.51
42519;BME280;28147;47.520;18.920;2022-10-31T06:21:22;99098.03;;;16.49;66.16
42519;BME280;28147;47.520;18.920;2022-10-31T06:23:47;99096.22;;;16.87;65.47
42519;BME280;28147;47.520;18.920;2022-10-31T06:26:13;99101.13;;;16.95;65.00
42519;BME280;28147;47.520;18.920;2022-10-31T06:28:38;99112.34;;;17.71;62.65
42519;BME280;28147;47.520;18.920;2022-10-31T06:31:04;99117.31;;;17.95;61.76
42519;BME280;28147;47.520;18.920;2022-10-31T06:33:29;99110.16;;;17.63;62.59
42519;BME280;28147;47.520;18.920;2022-10-31T06:35:55;99116.09;;;17.23;63.03
42519;BME280;28147;47.520;18.920;2022-10-31T06:38:20;99131.69;;;17.63;62.54
42519;BME280;28147;47.520;18.920;2022-10-31T06:40:46;99129.03;;;18.31;60.80
42519;BME280;28147;47.520;18.920;2022-10-31T06:43:11;99125.88;;;16.97;64.34
42519;BME280;28147;47.520;18.920;2022-10-31T06:45:37;99130.19;;;17.83;62.16
42519;BME280;28147;47.520;18.920;2022-10-31T06:48:03;99135.09;;;17.48;61.66
42519;BME280;28147;47.520;18.920;2022-10-31T06:50:28;99129.59;;;17.70;62.09
42519;BME280;28147;47.520;18.920;2022-10-31T06:52:56;99131.69;;;17.58;61.95
42519;BME280;28147;47.520;18.920;2022-10-31T06:55:22;99138.78;;;17.80;61.88
42519;BME280;28147;47.520;18.920;2022-10-31T06:57:52;99137.00;;;17.53;62.74
42519;BME280;28147;47.520;18.920;2022-10-31T07:00:18;99144.19;;;17.37;62.93
42519;BME280;28147;47.520;18.920;2022-10-31T07:02:53;99143.84;;;17.71;61.77
42519;BME280;28147;47.520;18.920;2022-10-31T07:05:18;99142.34;;;17.43;62.50
42519;BME280;28147;47.520;18.920;2022-10-31T07:07:43;99139.31;;;17.34;62.92
42519;BME280;28147;47.520;18.920;2022-10-31T07:10:09;99142.66;;;17.99;60.92
42519;BME280;28147;47.520;18.920;2022-10-31T07:12:34;99152.22;;;18.47;59.39
42519;BME280;28147;47.520;18.920;2022-10-31T07:15:00;99146.75;;;18.17;60.17
42519;BME280;28147;47.520;18.920;2022-10-31T07:17:25;99138.91;;;18.05;60.39
42519;BME280;28147;47.520;18.920;2022-10-31T07:19:50;99151.34;;;18.21;60.81
42519;BME280;28147;47.520;18.920;2022-10-31T07:22:16;99151.41;;;18.37;60.16
42519;BME280;28147;47.520;18.920;2022-10-31T07:24:41;99129.63;;;17.75;61.97
42519;BME280;28147;47.520;18.920;2022-10-31T07:27:06;99150.97;;;17.45;62.90
42519;BME280;28147;47.520;18.920;2022-10-31T07:29:35;99153.66;;;17.87;62.09
42519;BME280;28147;47.520;18.920;2022-10-31T07:32:00;99151.66;;;17.25;64.45
42519;BME280;28147;47.520;18.920;2022-10-31T07:34:27;99151.53;;;17.47;63.26
42519;BME280;28147;47.520;18.920;2022-10-31T07:36:53;99147.66;;;17.75;62.75
42519;BME280;28147;47.520;18.920;2022-10-31T07:39:19;99151.38;;;18.32;61.23
42519;BME280;28147;47.520;18.920;2022-10-31T07:41:44;99148.75;;;18.67;59.87
42519;BME280;28147;47.520;18.920;2022-10-31T07:44:10;99163.09;;;18.73;59.66
42519;BME280;28147;47.520;18.920;2022-10-31T07:46:35;99160.06;;;18.59;59.66
42519;BME280;28147;47.520;18.920;2022-10-31T07:49:00;99157.34;;;18.44;59.72
42519;BME280;28147;47.520;18.920;2022-10-31T07:51:26;99159.47;;;18.32;60.13
42519;BME280;28147;47.520;18.920;2022-10-31T07:53:52;99156.53;;;18.43;59.93
42519;BME280;28147;47.520;18.920;2022-10-31T07:56:17;99160.56;;;18.36;60.50
42519;BME280;28147;47.520;18.920;2022-10-31T07:58:42;99149.81;;;18.46;60.40
42519;BME280;28147;47.520;18.920;2022-10-31T08:01:08;99152.50;;;18.51;59.83
42519;BME280;28147;47.520;18.920;2022-10-31T08:03:33;99156.03;;;18.62;59.91
42519;BME280;28147;47.520;18.920;2022-10-31T08:05:58;99157.66;;;18.63;60.03
42519;BME280;28147;47.520;18.920;2022-10-31T08:08:24;99151.72;;;18.61;60.06
42519;BME280;28147;47.520;18.920;2022-10-31T08:10:49;99150.63;;;18.46;60.55
42519;BME280;28147;47.520;18.920;2022-10-31T08:13:15;99153.34;;;18.62;59.72
42519;BME280;28147;47.520;18.920;2022-10-31T08:15:41;99159.00;;;18.45;60.74
42519;BME280;28147;47.520;18.920;2022-10-31T08:18:12;99163.03;;;18.47;60.55
42519;BME280;28147;47.520;18.920;2022-10-31T08:20:38;99158.94;;;18.40;60.23
42519;BME280;28147;47.520;18.920;2022-10-31T08:23:04;99166.81;;;18.57;60.30
42519;BME280;28147;47.520;18.920;2022-10-31T08:25:32;99163.66;;;18.90;59.10
42519;BME280;28147;47.520;18.920;2022-10-31T08:27:57;99165.53;;;18.75;59.48
42519;BME280;28147;47.520;18.920;2022-10-31T08:30:26;99176.41;;;18.22;60.76
42519;BME280;28147;47.520;18.920;2022-10-31T08:33:03;99164.25;;;18.14;61.64
42519;BME280;28147;47.520;18.920;2022-10-31T08:35:31;99165.91;;;18.26;61.64
42519;BME280;28147;47.520;18.920;2022-10-31T08:37:57;99157.63;;;18.42;60.88
42519;BME280;28147;47.520;18.920;2022-10-31T08:40:23;99162.59;;;17.13;64.79
42519;BME280;28147;47.520;18.920;2022-10-31T08:43:21;99163.41;;;17.56;62.51
42519;BME280;28147;47.520;18.920;2022-10-31T08:45:48;99154.56;;;17.18;64.53
42519;BME280;28147;47.520;18.920;2022-10-31T08:48:15;99158.53;;;16.78;66.23
42519;BME280;28147;47.520;18.920;2022-10-31T08:50:42;99164.28;;;16.92;65.72
42519;BME280;28147;47.520;18.920;2022-10-31T08:55:38;99171.22;;;17.58;63.51
42519;BME280;28147;47.520;18.920;2022-10-31T08:58:06;99168.31;;;17.64;63.26
42519;BME280;28147;47.520;18.920;2022-10-31T09:00:33;99162.22;;;17.37;63.64
42519;BME280;28147;47.520;18.920;2022-10-31T09:03:02;99172.50;;;17.45;63.74
42519;BME280;28147;47.520;18.920;2022-10-31T09:05:27;99173.97;;;17.25;64.70
42519;BME280;28147;47.520;18.920;2022-10-31T09:08:00;99177.97;;;18.03;62.45
42519;BME280;28147;47.520;18.920;2022-10-31T09:10:27;99162.69;;;18.23;61.96
42519;BME280;28147;47.520;18.920;2022-10-31T09:13:00;99172.78;;;17.86;63.55
42519;BME280;28147;47.520;18.920;2022-10-31T09:15:27;99177.16;;;18.02;63.19
42519;BME280;28147;47.520;18.920;2022-10-31T09:17:54;99167.50;;;18.16;62.46
42519;BME280;28147;47.520;18.920;2022-10-31T09:20:20;99179.66;;;17.71;63.95
42519;BME280;28147;47.520;18.920;2022-10-31T09:22:46;99169.56;;;17.89;63.53
42519;BME280;28147;47.520;18.920;2022-10-31T09:25:11;99171.91;;;18.43;62.37
42519;BME280;28147;47.520;18.920;2022-10-31T09:27:37;99168.13;;;18.39;62.31
42519;BME280;28147;47.520;18.920;2022-10-31T09:30:03;99178.22;;;18.01;63.15
42519;BME280;28147;47.520;18.920;2022-10-31T09:32:29;99171.06;;;17.74;64.09
42519;BME280;28147;47.520;18.920;2022-10-31T09:34:54;99177.88;;;17.82;63.72
42519;BME280;28147;47.520;18.920;2022-10-31T09:37:20;99170.88;;;17.44;65.06
42519;BME280;28147;47.520;18.920;2022-10-31T09:39:45;99172.72;;;18.43;62.53
42519;BME280;28147;47.520;18.920;2022-10-31T09:50:46;99168.50;;;17.95;64.34
42519;BME280;28147;47.520;18.920;2022-10-31T09:53:43;99177.66;;;17.46;65.33
42519;BME280;28147;47.520;18.920;2022-10-31T09:56:18;99172.28;;;17.94;64.17
42519;BME280;28147;47.520;18.920;2022-10-31T09:58:51;99169.00;;;17.87;64.18
42519;BME280;28147;47.520;18.920;2022-10-31T10:01:56;99172.59;;;17.60;65.19
42519;BME280;28147;47.520;18.920;2022-10-31T10:09:59;99165.50;;;17.44;66.64
42519;BME280;28147;47.520;18.920;2022-10-31T10:20:43;99164.81;;;17.64;66.60
42519;BME280;28147;47.520;18.920;2022-10-31T10:25:53;99158.34;;;18.12;64.76
42519;BME280;28147;47.520;18.920;2022-10-31T10:28:35;99154.75;;;17.91;65.37
42519;BME280;28147;47.520;18.920;2022-10-31T10:31:23;99158.00;;;17.51;66.12
42519;BME280;28147;47.520;18.920;2022-10-31T10:34:18;99159.34;;;17.48;66.94
42519;BME280;28147;47.520;18.920;2022-10-31T10:36:49;99158.91;;;17.62;66.25
42519;BME280;28147;47.520;18.920;2022-10-31T10:39:21;99163.53;;;17.29;67.86
42519;BME280;28147;47.520;18.920;2022-10-31T10:41:49;99157.59;;;17.74;66.59
42519;BME280;28147;47.520;18.920;2022-10-31T10:44:34;99153.00;;;18.28;64.88
42519;BME280;28147;47.520;18.920;2022-10-31T10:47:21;99148.84;;;17.94;65.51
42519;BME280;28147;47.520;18.920;2022-10-31T10:50:19;99149.84;;;17.78;66.21
42519;BME280;28147;47.520;18.920;2022-10-31T10:58:41;99149.97;;;17.56;67.20
42519;BME280;28147;47.520;18.920;2022-10-31T11:01:14;99149.69;;;18.00;65.11
42519;BME280;28147;47.520;18.920;2022-10-31T11:03:41;99156.09;;;17.46;67.48
42519;BME280;28147;47.520;18.920;2022-10-31T11:06:17;99154.22;;;17.47;67.22
42519;BME280;28147;47.520;18.920;2022-10-31T11:08:45;99146.72;;;17.54;67.26
42519;BME280;28147;47.520;18.920;2022-10-31T11:11:23;99146.16;;;17.52;67.83
42519;BME280;28147;47.520;18.920;2022-10-31T11:13:55;99140.88;;;17.72;67.40
42519;BME280;28147;47.520;18.920;2022-10-31T11:16:30;99146.47;;;17.18;68.44
42519;BME280;28147;47.520;18.920;2022-10-31T11:19:07;99141.41;;;16.36;72.13
42519;BME280;28147;47.520;18.920;2022-10-31T11:21:33;99133.72;;;17.41;68.87
42519;BME280;28147;47.520;18.920;2022-10-31T11:26:38;99136.91;;;17.00;70.70
42519;BME280;28147;47.520;18.920;2022-10-31T11:29:05;99121.66;;;17.96;66.84
42519;BME280;28147;47.520;18.920;2022-10-31T11:31:32;99129.16;;;17.89;66.84
42519;BME280;28147;47.520;18.920;2022-10-31T11:34:05;99135.69;;;18.08;66.14
42519;BME280;28147;47.520;18.920;2022-10-31T11:36:35;99135.41;;;17.52;67.93
42519;BME280;28147;47.520;18.920;2022-10-31T11:39:03;99123.78;;;17.89;66.32
42519;BME280;28147;47.520;18.920;2022-10-31T11:41:33;99125.50;;;18.26;64.97
42519;BME280;28147;47.520;18.920;2022-10-31T11:44:11;99122.09;;;18.86;63.34
42519;BME280;28147;47.520;18.920;2022-10-31T11:46:43;99119.78;;;18.07;65.45
42519;BME280;28147;47.520;18.920;2022-10-31T11:49:20;99126.00;;;18.12;65.13
42519;BME280;28147;47.520;18.920;2022-10-31T11:51:52;99127.03;;;17.96;65.80
42519;BME280;28147;47.520;18.920;2022-10-31T11:59:56;99128.50;;;17.71;66.57
42519;BME280;28147;47.520;18.920;2022-10-31T12:02:22;99131.59;;;17.43;67.52
42519;BME280;28147;47.520;18.920;2022-10-31T12:07:24;99121.38;;;17.97;65.33
42519;BME280;28147;47.520;18.920;2022-10-31T12:09:50;99137.97;;;17.32;67.22
42519;BME280;28147;47.520;18.920;2022-10-31T12:15:36;99135.47;;;18.25;67.09
42519;BME280;28147;47.520;18.920;2022-10-31T12:40:19;99125.28;;;16.90;68.88
42519;BME280;28147;47.520;18.920;2022-10-31T12:43:15;99126.66;;;16.92;69.09
42519;BME280;28147;47.520;18.920;2022-10-31T12:45:45;99116.63;;;17.62;66.82
42519;BME280;28147;47.520;18.920;2022-10-31T13:01:55;99119.41;;;17.78;65.71
42519;BME280;28147;47.520;18.920;2022-10-31T13:04:40;99115.53;;;17.58;66.54
42519;BME280;28147;47.520;18.920;2022-10-31T13:07:17;99112.81;;;18.16;64.73
42519;BME280;28147;47.520;18.920;2022-10-31T13:12:47;99105.56;;;18.37;63.98
42519;BME280;28147;47.520;18.920;2022-10-31T13:17:49;99103.94;;;18.26;63.81
42519;BME280;28147;47.520;18.920;2022-10-31T13:20:29;99111.00;;;18.62;62.89
42519;BME280;28147;47.520;18.920;2022-10-31T13:23:11;99112.31;;;18.39;62.38
42519;BME280;28147;47.520;18.920;2022-10-31T13:25:42;99105.66;;;18.73;61.73
42519;BME280;28147;47.520;18.920;2022-10-31T13:30:51;99107.97;;;18.23;62.84
42519;BME280;28147;47.520;18.920;2022-10-31T13:33:18;99112.75;;;18.01;62.94
42519;BME280;28147;47.520;18.920;2022-10-31T13:41:39;99102.81;;;18.06;62.71
42519;BME280;28147;47.520;18.920;2022-10-31T13:44:34;99104.75;;;18.36;61.79
42519;BME280;28147;47.520;18.920;2022-10-31T13:47:02;99108.84;;;18.49;61.26
42519;BME280;28147;47.520;18.920;2022-10-31T13:52:23;99107.38;;;18.06;63.31
42519;BME280;28147;47.520;18.920;2022-10-31T13:54:51;99110.06;;;18.06;62.62
42519;BME280;28147;47.520;18.920;2022-10-31T13:57:30;99107.75;;;18.45;61.35
42519;BME280;28147;47.520;18.920;2022-10-31T14:00:03;99105.78;;;17.52;64.08
42519;BME280;28147;47.520;18.920;2022-10-31T14:02:34;99106.91;;;18.19;62.41
42519;BME280;28147;47.520;18.920;2022-10-31T14:05:06;99106.91;;;18.24;62.22
42519;BME280;28147;47.520;18.920;2022-10-31T14:07:45;99098.31;;;18.42;61.46
42519;BME280;28147;47.520;18.920;2022-10-31T14:10:32;99104.75;;;18.31;62.14
42519;BME280;28147;47.520;18.920;2022-10-31T14:15:54;99098.31;;;18.37;61.90
42519;BME280;28147;47.520;18.920;2022-10-31T14:18:41;99093.47;;;18.65;60.92
42519;BME280;28147;47.520;18.920;2022-10-31T14:23:51;99094.78;;;18.32;61.78
42519;BME280;28147;47.520;18.920;2022-10-31T14:29:22;99103.84;;;17.95;63.00
42519;BME280;28147;47.520;18.920;2022-10-31T14:31:41;99097.75;;;18.30;61.84
42519;BME280;28147;47.520;18.920;2022-10-31T14:34:30;99105.22;;;18.03;62.44
42519;BME280;28147;47.520;18.920;2022-10-31T14:50:56;99110.56;;;17.40;64.35
42519;BME280;28147;47.520;18.920;2022-10-31T14:53:31;99104.75;;;17.16;65.21
42519;BME280;28147;47.520;18.920;2022-10-31T14:55:58;99100.94;;;17.07;65.41
42519;BME280;28147;47.520;18.920;2022-10-31T14:58:42;99103.50;;;17.29;65.54
42519;BME280;28147;47.520;18.920;2022-10-31T15:03:47;99104.38;;;17.39;64.35
42519;BME280;28147;47.520;18.920;2022-10-31T15:06:14;99095.81;;;17.05;65.95
42519;BME280;28147;47.520;18.920;2022-10-31T15:08:44;99096.00;;;17.36;64.97
42519;BME280;28147;47.520;18.920;2022-10-31T15:11:15;99093.84;;;17.33;64.71
42519;BME280;28147;47.520;18.920;2022-10-31T15:13:42;99096.16;;;17.19;65.15
42519;BME280;28147;47.520;18.920;2022-10-31T15:16:10;99097.03;;;16.87;65.83
42519;BME280;28147;47.520;18.920;2022-10-31T15:18:44;99088.84;;;17.09;65.57
42519;BME280;28147;47.520;18.920;2022-10-31T15:21:17;99090.22;;;16.74;66.08
42519;BME280;28147;47.520;18.920;2022-10-31T15:23:45;99100.16;;;17.11;65.37
42519;BME280;28147;47.520;18.920;2022-10-31T15:26:19;99092.84;;;17.01;66.09
42519;BME280;28147;47.520;18.920;2022-10-31T15:28:46;99099.38;;;17.58;63.98
42519;BME280;28147;47.520;18.920;2022-10-31T15:31:22;99090.38;;;17.42;63.91